KLM1758 EDDH-EHAM
Flight info
| Callsign | KLM1758 |
|---|---|
| Flight time | N/A |
| Altitude | 26000 |
| Route | WSN5G WSN N125 ITMIZ DCT BLUFA |
| Aircraft | B737/M-SDE2E3FGHIRWXY/LB1 |
Departure
| Time | 2026-04-24 16:20 |
|---|---|
| Airport | Hamburg Helmut Schmidt Airport (EDDH) |
Arrival
| Time | N/A |
|---|---|
| Airport | Amsterdam Airport Schiphol (EHAM) |
| Time | Latitude | Longitude | Altitude | Speed | Heading |
|---|---|---|---|---|---|
| 2026-04-24 15:55 | 53.63414 | 10.00354 | 61 ft | 0 kts | 86° |
| 2026-04-24 16:12 | 53.63412 | 10.00316 | 61 ft | 2 kts | 86° |
| 2026-04-24 16:12 | 53.63411 | 10.00291 | 61 ft | 2 kts | 86° |
| 2026-04-24 16:12 | 53.63412 | 10.00241 | 61 ft | 2 kts | 121° |
| 2026-04-24 16:13 | 53.63423 | 10.00222 | 61 ft | 2 kts | 151° |
| 2026-04-24 16:13 | 53.63434 | 10.00216 | 61 ft | 2 kts | 174° |
| 2026-04-24 16:14 | 53.63438 | 10.00216 | 61 ft | 0 kts | 181° |
| 2026-04-24 16:16 | 53.63294 | 10.00234 | 61 ft | 13 kts | 176° |
| 2026-04-24 16:16 | 53.63201 | 10.00248 | 61 ft | 12 kts | 173° |
| 2026-04-24 16:17 | 53.62955 | 10.00139 | 61 ft | 12 kts | 214° |
| 2026-04-24 16:17 | 53.62865 | 10.00018 | 61 ft | 3 kts | 239° |
| 2026-04-24 16:18 | 53.62848 | 9.99964 | 61 ft | 0 kts | 240° |
| 2026-04-24 16:18 | 53.62814 | 9.99865 | 61 ft | 13 kts | 240° |
| 2026-04-24 16:18 | 53.62849 | 9.99760 | 61 ft | 12 kts | 334° |
| 2026-04-24 16:19 | 53.63199 | 9.99458 | 61 ft | 84 kts | 332° |
| 2026-04-24 16:19 | 53.63959 | 9.98808 | 100 ft | 154 kts | 329° |
| 2026-04-24 16:20 | 53.65869 | 9.97053 | 1743 ft | 157 kts | 330° |
| 2026-04-24 16:20 | 53.67974 | 9.95343 | 2516 ft | 185 kts | 332° |
| 2026-04-24 16:20 | 53.69156 | 9.94331 | 2471 ft | 191 kts | 332° |
| 2026-04-24 16:21 | 53.71036 | 9.91224 | 2850 ft | 210 kts | 291° |
| 2026-04-24 16:21 | 53.71274 | 9.88745 | 3617 ft | 223 kts | 277° |
| 2026-04-24 16:21 | 53.71025 | 9.86102 | 4277 ft | 244 kts | 259° |
| 2026-04-24 16:22 | 53.70390 | 9.83347 | 4924 ft | 259 kts | 254° |
| 2026-04-24 16:22 | 53.69137 | 9.77510 | 6549 ft | 270 kts | 258° |
| 2026-04-24 16:22 | 53.68546 | 9.74494 | 7375 ft | 275 kts | 258° |
| 2026-04-24 16:23 | 53.67956 | 9.71467 | 8263 ft | 276 kts | 258° |
| 2026-04-24 16:23 | 53.67356 | 9.68398 | 9071 ft | 280 kts | 257° |
| 2026-04-24 16:23 | 53.66743 | 9.65292 | 9793 ft | 286 kts | 257° |
| 2026-04-24 16:24 | 53.65440 | 9.58900 | 10122 ft | 288 kts | 254° |
| 2026-04-24 16:24 | 53.64648 | 9.55816 | 10133 ft | 289 kts | 251° |
| 2026-04-24 16:24 | 53.63789 | 9.52768 | 10135 ft | 289 kts | 250° |
| 2026-04-24 16:24 | 53.62916 | 9.49713 | 10134 ft | 289 kts | 250° |
| 2026-04-24 16:25 | 53.62037 | 9.46579 | 10294 ft | 310 kts | 250° |
| 2026-04-24 16:25 | 53.61099 | 9.43182 | 10760 ft | 326 kts | 250° |
| 2026-04-24 16:25 | 53.60133 | 9.39668 | 11209 ft | 341 kts | 250° |
| 2026-04-24 16:26 | 53.58100 | 9.32326 | 12713 ft | 351 kts | 249° |
| 2026-04-24 16:26 | 53.57065 | 9.28602 | 13556 ft | 354 kts | 249° |
| 2026-04-24 16:26 | 53.54968 | 9.21064 | 15219 ft | 361 kts | 248° |
| 2026-04-24 16:27 | 53.53913 | 9.17269 | 16030 ft | 364 kts | 248° |
| 2026-04-24 16:27 | 53.52851 | 9.13453 | 16832 ft | 367 kts | 248° |
| 2026-04-24 16:27 | 53.51767 | 9.09558 | 17577 ft | 371 kts | 248° |
| 2026-04-24 16:27 | 53.50661 | 9.05595 | 18347 ft | 374 kts | 248° |
| 2026-04-24 16:28 | 53.49563 | 9.01666 | 19120 ft | 376 kts | 248° |